Time;durP1;ratioP1;P1;durP2;ratioP2;P2;SDS_P1;SDS_P2;PMS_P1;PMS_P2;Temp;Humidity;BMP_temperature;BMP_pressure;BME280_temperature;BME280_humidity;BME280_pressure;Samples;Min_cycle;Max_cycle;Signal;HPM_P1;HPM_P2
2021/01/04 00:38:19;;;;;;;33.00;15.13;;;;;;;0.41;88.87;99200.14;1684596;80;21592;-83
2021/01/04 00:41:10;;;;;;;38.53;15.72;;;;;;;0.43;90.45;99188.23;1723046;79;21414;31
2021/01/04 00:43:58;;;;;;;42.55;18.25;;;;;;;0.48;89.82;99204.94;1699188;80;22847;31
2021/01/04 00:46:46;;;;;;;37.20;16.50;;;;;;;0.53;89.38;99209.72;1725039;79;21272;31
2021/01/04 00:52:33;;;;;;;43.25;18.17;;;;;;;0.57;88.39;99201.27;1699230;77;21328;-75
2021/01/04 01:01:20;;;;;;;36.70;18.40;;;;;;;0.51;88.13;99185.39;1753154;78;23206;31
2021/01/04 01:04:03;;;;;;;36.25;17.05;;;;;;;0.54;88.08;99186.73;1708645;80;21300;31
2021/01/04 01:09:34;;;;;;;35.68;16.02;;;;;;;0.51;87.54;99193.06;1697546;79;21179;-82
2021/01/04 01:15:15;;;;;;;34.23;15.07;;;;;;;0.46;88.48;99210.05;1727618;77;21150;31
2021/01/04 01:18:18;;;;;;;41.60;16.95;;;;;;;0.48;88.12;99217.33;1758963;77;22855;31
2021/01/04 01:21:01;;;;;;;37.03;16.30;;;;;;;0.47;88.10;99207.92;1746345;77;21640;31
2021/01/04 01:36:14;;;;;;;38.20;17.07;;;;;;;0.67;88.37;99212.52;1718827;80;21286;31
2021/01/04 01:42:39;;;;;;;36.63;16.17;;;;;;;0.73;88.27;99198.54;1689309;82;21256;31
2021/01/04 01:48:24;;;;;;;33.10;14.43;;;;;;;0.74;88.08;99202.84;1734642;78;21222;31
2021/01/04 01:50:54;;;;;;;;;;;;;;;0.67;87.61;99194.18;1756922;78;21276;-82
2021/01/04 01:53:33;;;;;;;36.88;15.55;;;;;;;0.64;87.55;99186.47;1759618;78;20202;-83
2021/01/04 01:56:18;;;;;;;35.30;15.20;;;;;;;0.59;87.25;99180.41;1744544;77;21298;31
2021/01/04 01:59:32;;;;;;;34.60;15.75;;;;;;;0.53;87.19;99173.48;1741948;80;21153;-82
2021/01/04 02:02:40;;;;;;;33.13;14.28;;;;;;;0.52;87.15;99180.73;1744509;80;21188;31
2021/01/04 02:05:16;;;;;;;36.10;15.83;;;;;;;0.32;87.60;99168.00;1663124;82;21333;-82
2021/01/04 02:08:04;;;;;;;30.90;14.53;;;;;;;0.21;87.82;99154.19;1714053;78;21394;31
2021/01/04 02:13:55;;;;;;;32.35;15.35;;;;;;;0.14;87.68;99167.27;1776098;78;21220;-82
2021/01/04 02:16:45;;;;;;;32.78;15.32;;;;;;;0.14;88.00;99163.43;1778534;77;21094;31
2021/01/04 02:19:54;;;;;;;33.05;14.78;;;;;;;0.16;87.77;99151.53;1757120;78;21298;-79
2021/01/04 02:22:42;;;;;;;32.00;15.65;;;;;;;0.08;88.34;99147.59;1749230;78;21322;31
2021/01/04 02:25:37;;;;;;;32.93;14.50;;;;;;;0.00;89.20;99151.71;1744824;80;21164;-83
2021/01/04 02:35:03;;;;;;;26.65;12.80;;;;;;;0.01;88.37;99159.80;1791981;77;21164;-80
2021/01/04 02:37:39;;;;;;;27.90;13.25;;;;;;;-0.05;88.98;99156.72;1752358;77;21229;31
2021/01/04 02:40:15;;;;;;;29.60;14.57;;;;;;;-0.04;88.43;99163.56;1759726;78;21257;31
2021/01/04 02:42:49;;;;;;;29.25;13.62;;;;;;;-0.02;88.43;99163.57;1759026;78;21314;31
2021/01/04 02:45:28;;;;;;;28.52;14.25;;;;;;;-0.03;89.25;99174.64;1735082;78;21309;-81
2021/01/04 02:48:29;;;;;;;30.70;13.50;;;;;;;-0.01;88.80;99177.66;1758592;77;21256;31
2021/01/04 02:54:28;;;;;;;31.45;14.87;;;;;;;0.09;88.94;99175.28;1722250;78;21241;31
2021/01/04 03:03:37;;;;;;;29.90;15.03;;;;;;;0.26;89.28;99175.57;1760127;78;21284;31
2021/01/04 03:06:21;;;;;;;27.40;13.43;;;;;;;0.31;89.04;99181.22;1738750;78;21372;31
2021/01/04 03:08:49;;;;;;;;;;;;;;;0.37;89.00;99175.35;1754402;78;21447;-78
2021/01/04 03:11:17;;;;;;;27.98;13.32;;;;;;;0.41;89.07;99172.01;1757952;78;20225;-81
2021/01/04 03:17:21;;;;;;;30.48;13.30;;;;;;;0.44;88.56;99160.95;1743990;77;21296;31
2021/01/04 03:19:57;;;;;;;28.63;12.70;;;;;;;0.44;87.99;99169.91;1743654;78;21419;31
2021/01/04 03:26:10;;;;;;;28.32;15.03;;;;;;;0.45;87.63;99163.97;1772236;78;21247;-82
2021/01/04 03:28:38;;;;;;;30.35;15.50;;;;;;;0.44;87.75;99155.84;1697659;81;21186;-82
2021/01/04 03:31:14;;;;;;;31.50;14.70;;;;;;;0.32;87.92;99148.42;1726666;78;21172;31
2021/01/04 03:33:50;;;;;;;28.47;14.07;;;;;;;0.29;88.04;99143.67;1741678;78;21200;31
2021/01/04 03:36:25;;;;;;;30.32;13.68;;;;;;;0.28;88.18;99127.48;1741380;78;21207;31
2021/01/04 03:38:53;;;;;;;29.17;13.10;;;;;;;0.27;88.22;99118.07;1740324;78;21343;-75
2021/01/04 03:54:23;;;;;;;28.45;13.35;;;;;;;0.36;89.80;99104.59;1757319;78;21118;-81
2021/01/04 03:56:54;;;;;;;34.90;14.17;;;;;;;0.38;90.09;99098.66;1733602;78;21380;-75
2021/01/04 03:59:22;;;;;;;31.63;14.10;;;;;;;0.44;89.55;99099.17;1770510;78;21117;-80
2021/01/04 04:01:56;;;;;;;31.90;15.18;;;;;;;0.50;89.45;99100.97;1769132;78;21243;-82
2021/01/04 04:04:25;;;;;;;29.48;14.68;;;;;;;0.52;89.70;99101.86;1758013;80;21231;-83
2021/01/04 04:12:50;;;;;;;29.10;13.35;;;;;;;0.54;89.21;99084.41;1757151;77;21196;-75
2021/01/04 04:15:19;;;;;;;31.40;14.90;;;;;;;0.53;89.36;99101.86;1723802;80;21295;-81
2021/01/04 04:17:47;;;;;;;32.25;15.15;;;;;;;0.54;89.14;99119.37;1753430;77;21221;-74
2021/01/04 04:23:25;;;;;;;46.55;21.07;;;;;;;0.59;88.41;99134.34;1744175;78;21094;-79
2021/01/04 04:25:53;;;;;;;36.40;19.07;;;;;;;0.63;88.99;99125.88;1752441;78;21276;-81
2021/01/04 04:28:21;;;;;;;35.10;16.30;;;;;;;0.68;88.82;99132.37;1753490;78;21102;-78
2021/01/04 04:34:12;;;;;;;38.02;17.48;;;;;;;0.79;88.98;99139.34;1733713;77;21121;31
2021/01/04 04:49:01;;;;;;;31.95;14.98;;;;;;;1.08;88.51;99123.55;1725303;80;21795;-83
2021/01/04 04:55:05;;;;;;;27.82;15.28;;;;;;;1.10;88.06;99133.39;1740305;79;21131;-80
2021/01/04 04:57:55;;;;;;;32.70;14.65;;;;;;;1.10;87.84;99128.70;1733963;79;21268;31
2021/01/04 05:00:51;;;;;;;33.60;15.48;;;;;;;1.08;87.89;99128.67;1709454;80;21239;31
2021/01/04 05:03:34;;;;;;;32.85;15.70;;;;;;;1.09;87.79;99124.41;1710642;77;21201;31
2021/01/04 05:18:51;;;;;;;44.93;18.73;;;;;;;0.93;87.70;99107.55;1698914;79;21405;-81
2021/01/04 05:37:49;;;;;;;37.10;16.12;;;;;;;0.90;88.45;99102.41;1734164;78;21206;31
2021/01/04 05:46:47;;;;;;;40.90;17.23;;;;;;;0.74;88.01;99096.20;1715532;80;21329;31
2021/01/04 05:52:45;;;;;;;32.50;16.35;;;;;;;0.71;88.21;99096.58;1744152;79;22646;-77
2021/01/04 06:22:22;;;;;;;40.48;18.67;;;;;;;0.82;88.02;99101.84;1676226;86;21311;-82
2021/01/04 06:25:01;;;;;;;39.05;18.00;;;;;;;0.88;88.08;99100.24;1694988;77;21669;31
2021/01/04 06:31:05;;;;;;;42.13;18.32;;;;;;;0.99;87.90;99110.22;1701241;77;22816;31
2021/01/04 06:33:41;;;;;;;36.45;18.35;;;;;;;1.06;87.79;99112.43;1690573;80;22501;31
2021/01/04 06:39:29;;;;;;;47.00;23.87;;;;;;;1.06;87.24;99130.78;1721526;81;21172;-84
2021/01/04 06:53:25;;;;;;;44.23;18.50;;;;;;;1.13;86.97;99130.86;1806293;77;22259;-83
2021/01/04 06:56:35;;;;;;;40.63;19.10;;;;;;;1.08;87.05;99130.38;1791924;79;21232;-84
2021/01/04 06:59:20;;;;;;;48.85;21.02;;;;;;;1.08;86.81;99140.20;1689555;81;21255;31
2021/01/04 07:23:27;;;;;;;52.78;21.35;;;;;;;1.47;86.85;99108.22;1819646;78;23014;-85
2021/01/04 07:38:20;;;;;;;41.88;18.70;;;;;;;1.65;87.29;99088.78;1752854;80;21279;-84
2021/01/04 07:41:19;;;;;;;43.87;20.10;;;;;;;1.71;87.28;99082.44;1759899;79;21287;-81
2021/01/04 07:44:25;;;;;;;46.65;20.72;;;;;;;1.82;86.99;99078.28;1769890;79;21098;-82
2021/01/04 07:47:32;;;;;;;61.28;21.23;;;;;;;1.85;87.16;99082.17;1756144;79;21297;-82
2021/01/04 07:50:43;;;;;;;52.95;24.07;;;;;;;1.92;87.21;99084.36;1749246;81;21241;-84
2021/01/04 07:53:42;;;;;;;55.78;25.88;;;;;;;1.99;86.93;99084.88;1745728;81;21280;-83
2021/01/04 07:56:50;;;;;;;51.80;24.35;;;;;;;2.04;86.87;99079.77;1709101;84;21315;-81
2021/01/04 08:13:32;;;;;;;36.65;17.73;;;;;;;2.21;86.24;99077.34;1795210;77;22935;-82
2021/01/04 08:16:04;;;;;;;45.05;20.62;;;;;;;2.17;86.39;99079.05;1819126;78;21175;-82
2021/01/04 08:18:33;;;;;;;45.05;20.55;;;;;;;2.19;86.65;99074.78;1790635;78;21271;-84
2021/01/04 08:21:36;;;;;;;41.68;19.20;;;;;;;2.24;86.42;99076.09;1809050;78;21134;-83
2021/01/04 08:24:19;;;;;;;43.55;20.75;;;;;;;2.29;86.31;99078.25;1821476;78;21223;-84
2021/01/04 08:27:25;;;;;;;;;;;;;;;2.29;86.26;99070.56;1823226;78;21513;-86
2021/01/04 08:30:33;;;;;;;38.53;17.52;;;;;;;2.30;86.57;99066.73;1776273;79;20204;-83
2021/01/04 08:33:19;;;;;;;42.90;21.27;;;;;;;2.31;86.46;99054.35;1777263;79;21221;-84
2021/01/04 08:35:47;;;;;;;45.78;22.27;;;;;;;2.35;86.35;99034.72;1726815;78;21272;-87
2021/01/04 08:38:27;;;;;;;48.17;23.80;;;;;;;2.30;86.44;99020.55;1689229;83;21193;-89
2021/01/04 08:41:24;;;;;;;42.45;22.30;;;;;;;2.31;86.54;99015.02;1699695;84;21156;-83
2021/01/04 08:43:54;;;;;;;44.45;20.43;;;;;;;2.30;86.48;99007.73;1682157;84;21611;-84
2021/01/04 08:46:28;;;;;;;48.95;23.50;;;;;;;2.30;86.58;99009.44;1692801;80;21273;-85
2021/01/04 08:49:18;;;;;;;47.53;21.27;;;;;;;2.33;86.68;99001.78;1676977;85;21300;-84
2021/01/04 08:51:53;;;;;;;64.10;24.80;;;;;;;2.34;86.71;99003.48;1670603;81;21311;-86
2021/01/04 08:54:26;;;;;;;52.15;22.32;;;;;;;2.39;86.71;99001.81;1654448;85;21165;-82
2021/01/04 08:57:07;;;;;;;;;;;;;;;2.43;86.37;98997.53;1648473;85;21264;-83
2021/01/04 08:59:36;;;;;;;53.60;24.82;;;;;;;2.48;86.63;99009.98;1605372;86;20155;-84
2021/01/04 09:02:18;;;;;;;49.55;23.45;;;;;;;2.51;86.54;99007.45;1678477;82;21748;-84
2021/01/04 09:04:51;;;;;;;44.40;21.07;;;;;;;2.53;86.01;98987.34;1680314;81;21188;-87
2021/01/04 09:07:21;;;;;;;42.27;20.08;;;;;;;2.51;85.86;98985.20;1650150;85;21298;-87
2021/01/04 09:10:04;;;;;;;43.52;20.62;;;;;;;2.54;85.80;98988.20;1654640;86;21177;-84
2021/01/04 09:12:42;;;;;;;45.00;20.12;;;;;;;2.43;85.97;98971.87;1642228;87;21523;-84
2021/01/04 09:15:27;;;;;;;35.55;19.27;;;;;;;2.65;85.99;99002.39;1627568;86;21188;-84
2021/01/04 09:18:34;;;;;;;41.00;20.50;;;;;;;2.68;85.64;98992.12;1621086;88;21207;-84
2021/01/04 09:21:42;;;;;;;43.75;22.37;;;;;;;2.65;85.34;98972.87;1627144;87;21324;-83
2021/01/04 09:24:32;;;;;;;61.28;28.75;;;;;;;2.64;85.42;98971.14;1627722;86;21160;-83
2021/01/04 09:27:36;;;;;;;47.17;24.65;;;;;;;2.59;85.75;98970.70;1606348;87;21176;-85
2021/01/04 09:30:10;;;;;;;46.98;23.87;;;;;;;2.62;85.68;98967.28;1622794;84;21354;-90
2021/01/04 09:32:42;;;;;;;49.95;23.55;;;;;;;2.67;85.92;98969.89;1754539;80;21180;-90
2021/01/04 09:35:22;;;;;;;53.52;25.10;;;;;;;2.73;86.03;98972.48;1770378;81;21118;-83
2021/01/04 09:38:12;;;;;;;47.93;24.75;;;;;;;2.79;85.58;98976.36;1768030;80;21101;-91
2021/01/04 09:40:39;;;;;;;39.78;19.48;;;;;;;2.84;86.06;98985.35;1662356;85;21232;-81
2021/01/04 09:43:11;;;;;;;44.63;21.15;;;;;;;2.91;85.67;98972.55;1696615;83;21202;-88
2021/01/04 09:45:39;;;;;;;53.65;23.60;;;;;;;2.94;85.81;98957.56;1693009;84;21152;-82
2021/01/04 09:50:57;;;;;;;41.48;19.85;;;;;;;3.10;86.04;98949.48;1680694;83;21168;-88
2021/01/04 09:53:31;;;;;;;39.67;17.37;;;;;;;3.17;86.27;98952.08;1655694;84;21857;-88
2021/01/04 09:56:06;;;;;;;36.33;16.30;;;;;;;3.28;86.37;98945.69;1670515;84;21120;-88
2021/01/04 09:58:35;;;;;;;40.00;17.50;;;;;;;3.36;86.08;98927.28;1692221;83;21240;-92
2021/01/04 10:01:18;;;;;;;34.67;17.48;;;;;;;3.43;85.84;98928.14;1701594;83;22325;-91
2021/01/04 10:04:05;;;;;;;36.50;17.17;;;;;;;3.53;85.90;98949.57;1685810;84;21199;-90
2021/01/04 10:06:36;;;;;;;40.55;20.32;;;;;;;3.65;85.94;98941.86;1625789;87;21238;-90
2021/01/04 10:09:09;;;;;;;36.25;18.75;;;;;;;3.72;85.41;98933.30;1707077;81;21577;-88
2021/01/04 10:11:37;;;;;;;42.17;19.67;;;;;;;3.79;85.35;98929.00;1736477;80;21735;-89
2021/01/04 10:14:07;;;;;;;43.98;22.02;;;;;;;3.81;84.74;98925.16;1692815;84;21191;-91
2021/01/04 10:16:38;;;;;;;45.40;20.88;;;;;;;3.85;84.92;98917.86;1703023;80;21426;-88
2021/01/04 10:19:29;;;;;;;41.35;20.37;;;;;;;3.93;84.91;98914.84;1700790;81;21175;-92
2021/01/04 10:22:11;;;;;;;40.12;19.55;;;;;;;3.98;84.52;98911.42;1731636;82;21187;-90
2021/01/04 10:25:02;;;;;;;41.20;17.27;;;;;;;3.99;84.50;98887.83;1722964;81;21295;-89
2021/01/04 10:27:32;;;;;;;39.38;20.00;;;;;;;4.01;84.48;98895.11;1743597;81;21171;-88
2021/01/04 10:30:08;;;;;;;40.30;19.45;;;;;;;4.13;84.55;98886.08;1794237;78;22927;-89
2021/01/04 10:32:40;;;;;;;67.08;31.75;;;;;;;4.18;84.50;98889.51;1738998;78;21319;-88
2021/01/04 10:35:23;;;;;;;54.10;25.40;;;;;;;4.22;84.29;98883.92;1729332;79;21305;-83
2021/01/04 10:38:09;;;;;;;41.55;18.55;;;;;;;4.29;84.27;98879.16;1746890;80;21155;-88
2021/01/04 10:40:45;;;;;;;46.25;20.27;;;;;;;4.36;83.53;98857.70;1756829;78;21077;-88
2021/01/04 10:43:20;;;;;;;39.30;20.27;;;;;;;4.46;84.20;98859.81;1760442;79;21169;-84
2021/01/04 10:45:53;;;;;;;47.35;23.15;;;;;;;4.53;84.03;98858.91;1691753;84;21157;-86
2021/01/04 10:48:29;;;;;;;44.35;22.07;;;;;;;4.57;83.71;98847.73;1755468;80;21514;-87
2021/01/04 10:51:00;;;;;;;47.98;22.85;;;;;;;4.62;83.81;98844.30;1751362;77;21126;-84
2021/01/04 10:53:36;;;;;;;43.00;20.97;;;;;;;4.61;83.44;98852.44;1678105;80;21167;-88
2021/01/04 10:56:19;;;;;;;43.85;20.00;;;;;;;4.65;83.36;98843.83;1692538;83;21125;-85
2021/01/04 10:59:04;;;;;;;43.73;19.92;;;;;;;4.66;83.31;98841.70;1695424;81;21139;-84
2021/01/04 11:01:37;;;;;;;42.23;20.20;;;;;;;4.67;83.48;98832.24;1699743;82;21144;-82
2021/01/04 11:04:13;;;;;;;35.38;18.62;;;;;;;4.68;83.43;98830.95;1704708;80;21224;-87
2021/01/04 11:06:49;;;;;;;41.73;21.07;;;;;;;4.74;83.85;98832.64;1750043;80;21316;-91
2021/01/04 11:09:40;;;;;;;45.38;23.52;;;;;;;4.80;83.89;98834.34;1744443;81;21520;-87
2021/01/04 11:12:14;;;;;;;43.55;23.90;;;;;;;4.85;83.96;98829.99;1713549;79;21175;-91
2021/01/04 11:14:59;;;;;;;47.13;23.32;;;;;;;4.82;83.68;98820.58;1711082;78;21164;-89
2021/01/04 11:17:31;;;;;;;44.25;23.22;;;;;;;4.77;83.48;98814.17;1721455;80;21253;-88
2021/01/04 11:20:15;;;;;;;44.60;23.02;;;;;;;4.75;83.66;98813.30;1787540;78;21154;-91
2021/01/04 11:23:09;;;;;;;48.20;22.65;;;;;;;4.75;83.63;98809.43;1795982;75;21133;-83
2021/01/04 11:25:45;;;;;;;41.23;19.65;;;;;;;4.76;83.64;98800.01;1726042;80;21595;-87
2021/01/04 11:28:15;;;;;;;39.15;20.10;;;;;;;4.75;83.53;98795.27;1706959;79;21214;-91
2021/01/04 11:30:46;;;;;;;51.90;22.23;;;;;;;4.74;83.40;98800.02;1657413;81;21304;-90
2021/01/04 11:33:15;;;;;;;61.00;29.67;;;;;;;4.75;83.46;98795.27;1681715;84;21187;-91
2021/01/04 11:35:43;;;;;;;72.60;33.55;;;;;;;4.77;83.57;98800.01;1704564;80;21459;-87
2021/01/04 11:38:11;;;;;;;66.40;24.40;;;;;;;4.79;83.58;98798.69;1700295;84;21182;-89
2021/01/04 11:40:38;;;;;;;45.67;20.55;;;;;;;4.84;83.83;98787.94;1708945;84;21158;-87
2021/01/04 11:43:06;;;;;;;50.17;21.27;;;;;;;4.86;83.62;98778.91;1779301;79;21260;-91
2021/01/04 11:45:33;;;;;;;41.80;20.95;;;;;;;4.87;83.45;98777.59;1754153;80;21149;-90
2021/01/04 11:48:00;;;;;;;37.80;17.48;;;;;;;4.87;83.46;98776.30;1790683;79;21164;-91
2021/01/04 11:50:28;;;;;;;38.58;19.23;;;;;;;4.86;83.31;98763.02;1789655;79;21172;-90
2021/01/04 11:52:56;;;;;;;69.37;33.08;;;;;;;4.87;83.82;98765.16;1788487;79;21188;-90
2021/01/04 11:55:25;;;;;;;44.08;22.27;;;;;;;4.85;83.56;98754.85;1759850;78;21139;-87
2021/01/04 11:57:55;;;;;;;42.65;20.70;;;;;;;4.90;83.58;98741.52;1779846;79;21979;-90
2021/01/04 12:00:24;;;;;;;40.40;21.97;;;;;;;4.83;82.94;98742.42;1776712;80;21165;-90
2021/01/04 12:02:51;;;;;;;46.77;24.67;;;;;;;4.76;82.78;98748.06;1784855;80;21173;-90
2021/01/04 12:05:19;;;;;;;45.08;22.75;;;;;;;4.77;83.07;98738.20;1784870;80;21141;-90
2021/01/04 12:07:46;;;;;;;42.43;23.02;;;;;;;4.74;83.12;98739.94;1783916;79;21161;-87
2021/01/04 12:10:17;;;;;;;53.92;28.83;;;;;;;4.71;83.29;98737.37;1713978;81;21173;-88
2021/01/04 12:12:45;;;;;;;43.48;24.32;;;;;;;4.77;83.85;98731.76;1731180;80;21290;-90
2021/01/04 12:15:14;;;;;;;44.15;22.37;;;;;;;4.77;83.49;98729.59;1773776;79;21207;-91
2021/01/04 12:17:41;;;;;;;38.23;21.45;;;;;;;4.78;83.65;98726.17;1775170;79;21687;-91
2021/01/04 12:20:10;;;;;;;50.00;24.90;;;;;;;4.81;83.52;98735.58;1778805;79;21650;-90
2021/01/04 12:22:38;;;;;;;40.43;20.92;;;;;;;4.81;83.62;98718.40;1716818;79;21198;-88
2021/01/04 12:25:07;;;;;;;43.92;21.27;;;;;;;4.78;83.07;98715.87;1721871;82;21199;-87
2021/01/04 12:27:37;;;;;;;41.77;20.82;;;;;;;4.72;83.40;98719.78;1698124;82;21136;-82
2021/01/04 12:30:06;;;;;;;46.48;21.27;;;;;;;4.71;83.98;98706.47;1721572;82;21140;-85
2021/01/04 12:32:34;;;;;;;47.00;21.42;;;;;;;4.69;84.22;98696.17;1724150;83;21123;-85
2021/01/04 12:35:10;;;;;;;41.13;20.30;;;;;;;4.74;84.23;98694.87;1727218;81;21117;-85
2021/01/04 12:38:05;;;;;;;72.37;29.92;;;;;;;4.86;84.62;98690.89;1851644;75;22568;-90
2021/01/04 12:40:35;;;;;;;51.18;23.20;;;;;;;4.84;84.36;98687.48;1746465;80;21175;-88
2021/01/04 12:43:04;;;;;;;59.48;25.62;;;;;;;4.87;84.37;98679.71;1694189;80;21731;-90
2021/01/04 12:45:31;;;;;;;52.88;24.15;;;;;;;4.90;84.48;98674.55;1793474;76;21332;-88
2021/01/04 12:47:59;;;;;;;61.83;27.55;;;;;;;4.96;84.37;98679.64;1816264;76;21195;-92
2021/01/04 12:50:26;;;;;;;60.63;28.67;;;;;;;4.98;84.26;98683.50;1810467;75;21161;-91
2021/01/04 12:52:54;;;;;;;56.37;27.02;;;;;;;5.05;84.35;98671.40;1808107;78;21140;-89
2021/01/04 12:55:23;;;;;;;44.48;24.30;;;;;;;5.09;84.32;98670.50;1800622;77;21142;-90
2021/01/04 12:57:50;;;;;;;56.02;27.85;;;;;;;5.14;83.88;98667.45;1806712;78;21323;-84
2021/01/04 13:00:23;;;;;;;52.70;28.50;;;;;;;5.12;83.72;98661.47;1728950;78;21189;-91
2021/01/04 13:02:53;;;;;;;63.30;33.30;;;;;;;5.11;83.84;98647.73;1780134;77;21178;-89
2021/01/04 13:05:21;;;;;;;58.40;30.77;;;;;;;5.09;83.90;98645.61;1752436;79;21633;-89
2021/01/04 13:07:48;;;;;;;54.45;25.45;;;;;;;5.16;83.52;98645.95;1756309;80;21177;-92
2021/01/04 13:10:16;;;;;;;57.98;25.82;;;;;;;5.14;83.51;98644.27;1756370;80;21174;-89
2021/01/04 13:12:53;;;;;;;43.55;22.48;;;;;;;5.13;83.57;98634.81;1762155;81;21193;-85
2021/01/04 13:15:37;;;;;;;46.68;21.27;;;;;;;5.16;83.33;98639.95;1705932;79;21197;-91
2021/01/04 13:18:05;;;;;;;44.15;20.82;;;;;;;5.16;83.40;98638.22;1755227;79;22421;-89
2021/01/04 13:20:33;;;;;;;45.98;21.25;;;;;;;5.10;83.60;98634.42;1718424;80;21245;-91
2021/01/04 13:23:01;;;;;;;43.50;19.90;;;;;;;5.10;83.59;98626.69;1718162;80;21233;-92
2021/01/04 13:25:28;;;;;;;35.98;16.57;;;;;;;5.11;83.90;98619.80;1727176;80;21310;-92
2021/01/04 13:28:16;;;;;;;38.35;18.65;;;;;;;5.09;83.80;98625.41;1671150;84;21194;-92
2021/01/04 13:30:43;;;;;;;43.45;21.15;;;;;;;5.07;83.93;98631.02;1675698;84;21335;-92
2021/01/04 13:33:10;;;;;;;43.38;20.57;;;;;;;5.07;83.95;98618.12;1671836;84;21179;-91
2021/01/04 13:35:38;;;;;;;42.58;22.98;;;;;;;5.02;84.14;98622.05;1670251;84;21306;-92
2021/01/04 13:38:08;;;;;;;43.50;22.02;;;;;;;4.99;84.21;98620.78;1722501;82;21205;-91
2021/01/04 13:40:36;;;;;;;42.93;22.35;;;;;;;5.04;84.25;98623.33;1713122;79;21178;-92
2021/01/04 13:43:04;;;;;;;42.67;23.40;;;;;;;5.05;84.38;98626.31;1722823;81;21270;-88
2021/01/04 13:45:31;;;;;;;45.58;22.58;;;;;;;5.07;84.39;98616.40;1688489;83;21218;-92
2021/01/04 13:47:58;;;;;;;41.92;20.80;;;;;;;5.09;84.22;98617.67;1720852;81;21213;-90
2021/01/04 13:50:26;;;;;;;40.23;19.90;;;;;;;5.09;83.92;98615.10;1727119;81;21161;-92
2021/01/04 13:52:53;;;;;;;37.55;19.32;;;;;;;4.84;84.13;98573.31;1725837;81;21188;-94
2021/01/04 13:55:21;;;;;;;39.42;19.70;;;;;;;5.03;84.06;98608.73;1726113;81;21200;-93
2021/01/04 13:57:48;;;;;;;45.45;21.12;;;;;;;5.02;84.00;98616.90;1690353;81;21168;-93
2021/01/04 14:00:17;;;;;;;50.45;22.42;;;;;;;5.01;84.07;98598.87;1725873;81;21643;-87
2021/01/04 14:02:47;;;;;;;45.78;22.82;;;;;;;4.97;84.06;98593.77;1720411;80;21310;-92
2021/01/04 14:05:16;;;;;;;54.45;27.07;;;;;;;4.96;84.23;98595.06;1694792;83;21217;-91
2021/01/04 14:07:44;;;;;;;71.92;33.13;;;;;;;4.92;84.46;98601.97;1743611;80;21630;-91
2021/01/04 14:10:12;;;;;;;73.52;35.13;;;;;;;4.88;84.38;98607.18;1747120;80;21209;-94
2021/01/04 14:12:40;;;;;;;71.02;28.25;;;;;;;4.84;84.41;98604.22;1736598;80;21702;-92
2021/01/04 14:15:08;;;;;;;67.08;28.75;;;;;;;4.81;84.31;98608.09;1740564;79;21692;-92
2021/01/04 14:17:37;;;;;;;60.67;29.00;;;;;;;4.77;84.38;98608.14;1699480;78;21309;-91
2021/01/04 14:20:06;;;;;;;68.83;27.73;;;;;;;4.78;84.37;98597.40;1732037;81;21183;-91
2021/01/04 14:22:38;;;;;;;93.85;38.25;;;;;;;4.76;84.32;98596.56;1714620;81;21166;-92
2021/01/04 14:25:10;;;;;;;83.05;33.02;;;;;;;4.75;84.20;98594.39;1680497;80;21239;-90
2021/01/04 14:27:38;;;;;;;70.28;30.35;;;;;;;4.77;84.48;98588.83;1689899;80;21563;-90
2021/01/04 14:30:08;;;;;;;74.67;30.27;;;;;;;4.62;84.49;98543.06;1679557;81;21159;-93
2021/01/04 14:32:40;;;;;;;65.32;29.63;;;;;;;4.78;84.47;98563.91;1667198;79;21759;-88
2021/01/04 14:35:20;;;;;;;77.42;30.17;;;;;;;4.81;84.38;98555.30;1714866;80;21216;-92
2021/01/04 14:38:08;;;;;;;76.85;32.48;;;;;;;4.86;84.47;98544.08;1824271;77;23076;-91
2021/01/04 14:40:36;;;;;;;82.60;35.13;;;;;;;4.83;84.53;98547.96;1770043;78;21337;-94
2021/01/04 14:43:03;;;;;;;78.95;36.20;;;;;;;4.85;84.53;98551.38;1689362;83;21150;-88
2021/01/04 14:45:31;;;;;;;83.12;37.35;;;;;;;4.85;84.49;98551.38;1690215;83;21791;-93
2021/01/04 14:48:00;;;;;;;103.62;43.25;;;;;;;4.86;84.53;98546.66;1661575;83;21181;-94
2021/01/04 14:50:28;;;;;;;108.03;46.68;;;;;;;4.84;84.48;98538.09;1736831;80;21169;-92
2021/01/04 14:52:55;;;;;;;89.03;40.63;;;;;;;4.83;84.51;98529.94;1740824;81;21567;-93
2021/01/04 14:55:22;;;;;;;96.22;40.05;;;;;;;4.81;84.42;98526.52;1740795;81;21308;-90
2021/01/04 14:57:50;;;;;;;88.92;39.83;;;;;;;4.77;84.40;98545.05;1739451;81;21190;-90
2021/01/04 15:00:19;;;;;;;84.65;37.75;;;;;;;4.69;84.06;98530.52;1741099;81;21304;-83
2021/01/04 15:02:46;;;;;;;84.28;37.67;;;;;;;4.62;84.12;98534.05;1721875;81;21310;-88
2021/01/04 15:05:14;;;;;;;143.60;54.55;;;;;;;4.56;84.06;98534.95;1687656;83;21164;-92
2021/01/04 15:07:42;;;;;;;137.03;54.95;;;;;;;4.50;84.40;98533.73;1694237;83;21164;-92
2021/01/04 15:10:10;;;;;;;106.78;44.40;;;;;;;4.48;84.02;98522.16;1690261;83;21322;-91
2021/01/04 15:12:37;;;;;;;97.55;36.35;;;;;;;4.41;84.55;98520.94;1688332;83;21188;-91
2021/01/04 15:15:11;;;;;;;95.42;38.70;;;;;;;4.37;84.86;98522.69;1693514;83;21300;-90
2021/01/04 15:17:39;;;;;;;111.45;45.30;;;;;;;4.37;85.03;98527.83;1750487;78;21728;-91
2021/01/04 15:20:08;;;;;;;155.40;66.47;;;;;;;4.38;86.48;98530.84;1755517;81;21316;-91
2021/01/04 15:22:35;;;;;;;82.22;34.23;;;;;;;4.40;86.01;98527.81;1745565;77;21198;-92
2021/01/04 15:25:06;;;;;;;77.72;34.03;;;;;;;4.41;85.17;98510.20;1746864;81;21152;-93
2021/01/04 15:27:35;;;;;;;78.25;34.67;;;;;;;4.39;85.24;98514.07;1776223;80;21278;-91
2021/01/04 15:30:03;;;;;;;73.60;31.90;;;;;;;4.42;85.32;98514.91;1784403;80;21280;-93
2021/01/04 15:32:31;;;;;;;72.53;29.67;;;;;;;4.45;85.35;98512.32;1704157;84;21283;-93
2021/01/04 15:34:58;;;;;;;68.05;28.70;;;;;;;4.46;85.44;98511.02;1713497;82;21156;-92
2021/01/04 15:37:26;;;;;;;68.37;29.20;;;;;;;4.49;85.23;98508.41;1709191;82;21595;-92
2021/01/04 15:39:53;;;;;;;62.33;28.73;;;;;;;4.52;85.26;98504.97;1786358;80;21280;-92
2021/01/04 15:42:21;;;;;;;66.15;28.70;;;;;;;4.52;85.22;98489.52;1783645;79;21176;-92
2021/01/04 15:44:48;;;;;;;55.98;27.77;;;;;;;4.55;85.12;98495.47;1733641;81;21159;-91
2021/01/04 15:47:18;;;;;;;64.50;29.87;;;;;;;4.58;85.15;98486.44;1688524;82;21284;-91
2021/01/04 15:49:45;;;;;;;63.05;31.55;;;;;;;4.60;85.07;98483.85;1677819;84;21517;-92
2021/01/04 15:52:13;;;;;;;65.85;32.55;;;;;;;4.60;84.96;98477.42;1675614;84;21170;-93
2021/01/04 15:54:43;;;;;;;76.47;34.40;;;;;;;4.57;84.93;98481.30;1676448;84;21173;-90
2021/01/04 15:57:13;;;;;;;72.62;33.85;;;;;;;4.58;84.82;98476.58;1702466;80;21115;-93
2021/01/04 15:59:46;;;;;;;72.50;36.60;;;;;;;4.54;84.49;98474.47;1744281;80;21130;-90
2021/01/04 16:02:15;;;;;;;78.17;38.40;;;;;;;4.45;84.78;98468.13;1727173;79;21164;-90
2021/01/04 16:04:43;;;;;;;83.27;38.73;;;;;;;4.41;85.18;98471.59;1574055;81;21191;-91
2021/01/04 16:07:11;;;;;;;237.25;105.45;;;;;;;4.40;85.24;98464.76;1594477;89;21198;-90
2021/01/04 16:09:39;;;;;;;114.62;54.35;;;;;;;4.41;85.35;98463.88;1591034;88;21229;-90
2021/01/04 16:12:07;;;;;;;99.40;45.78;;;;;;;4.42;85.24;98457.00;1744725;80;21160;-91
2021/01/04 16:14:35;;;;;;;91.95;43.58;;;;;;;4.43;85.75;98460.00;1682071;79;21168;-91
2021/01/04 16:17:04;;;;;;;94.03;40.90;;;;;;;4.42;86.11;98464.31;1646939;87;21541;-91
2021/01/04 16:19:34;;;;;;;95.00;43.02;;;;;;;4.40;85.70;98460.90;1644046;83;21159;-91
2021/01/04 16:22:05;;;;;;;86.05;41.53;;;;;;;4.37;85.57;98457.05;1716463;81;21258;-90
2021/01/04 16:24:34;;;;;;;92.82;41.35;;;;;;;4.34;85.47;98463.54;1706341;82;21187;-92
2021/01/04 16:27:03;;;;;;;94.17;38.60;;;;;;;4.30;85.64;98459.30;1719478;81;21110;-90
2021/01/04 16:29:32;;;;;;;97.90;42.05;;;;;;;4.28;85.47;98464.45;1690104;79;21151;-90
2021/01/04 16:32:04;;;;;;;99.05;39.63;;;;;;;4.25;85.67;98458.47;1719369;82;21317;-90
2021/01/04 16:34:34;;;;;;;91.78;38.83;;;;;;;3.95;85.62;98409.87;1734147;81;21180;-92
2021/01/04 16:37:08;;;;;;;94.30;39.10;;;;;;;4.23;85.63;98446.91;1762248;81;21146;-92
2021/01/04 16:39:55;;;;;;;88.25;38.75;;;;;;;4.23;85.56;98444.77;1761887;80;21139;-91